Buckley, Michigan
Current Conditions -  °F | °C
As of 3:53 AM on Monday 22 Dec 2014 (Local Time) from KTVC Reporting Station
Overcast Overcast  
Wind Chill: 26°   Ceiling: 3900
Heat Index: 32°   Visibility: 7mi
Dew Point: 26°   Wind: 6mph
Humidity: 79%   Direction: 140°SE
Pressure: 30.04"   Gusts: NA
Location:  44.5°N, 85.68°W
Report Text: KTVC 220853Z 14005KT 7SM BKN039 OVC120 00/M03 A3004 RMK AO2 SLP178 T00001033 58005
Loading
Personal Weather Stations






























Interactive Weather Map New forecast layout! Learn more

10-Day Weather Forecast

Advertisements
Track Severe Weather on mobile